createdAt,value
2023-02-09T00:01:03.357Z,103120.84
2023-02-09T00:03:29.743Z,103117.22
2023-02-09T00:05:56.306Z,103113.41
2023-02-09T00:08:22.637Z,103110.53
2023-02-09T00:10:48.958Z,103099.03
2023-02-09T00:13:24.454Z,103090.81
2023-02-09T00:15:54.492Z,103099.78
2023-02-09T00:18:20.830Z,103096.16
2023-02-09T00:20:55.003Z,103099.78
2023-02-09T00:23:21.324Z,103089.81
2023-02-09T00:25:47.656Z,103094.78
2023-02-09T00:28:14.047Z,103099.19
2023-02-09T00:30:40.430Z,103095.56
2023-02-09T00:33:06.839Z,103083.28
2023-02-09T00:35:33.161Z,103076.78
2023-02-09T00:37:59.511Z,103081.03
2023-02-09T00:40:25.860Z,103071.47
2023-02-09T00:42:52.187Z,103078.72
2023-02-09T00:45:18.513Z,103075.84
2023-02-09T00:47:44.843Z,103082.97
2023-02-09T00:50:11.187Z,103078.72
2023-02-09T00:52:37.540Z,103081.59
2023-02-09T00:55:04.089Z,103081.59
2023-02-09T00:57:30.453Z,103072.97
2023-02-09T00:59:56.805Z,103068.75
2023-02-09T01:02:23.121Z,103069.50
2023-02-09T01:04:49.512Z,103065.09
2023-02-09T01:07:15.903Z,103064.34
2023-02-09T01:09:42.238Z,103067.81
2023-02-09T01:12:08.595Z,103063.41
2023-02-09T01:14:37.328Z,103059.78
2023-02-09T01:17:03.746Z,103058.25
2023-02-09T01:19:30.194Z,103055.38
2023-02-09T01:21:56.541Z,103061.13
2023-02-09T01:24:22.878Z,103058.25
2023-02-09T01:26:49.216Z,103051.16
2023-02-09T01:29:15.963Z,103049.78
2023-02-09T01:31:42.394Z,103055.53
2023-02-09T01:34:10.184Z,103049.78
2023-02-09T01:36:36.512Z,103049.78
2023-02-09T01:39:03.006Z,103040.41
2023-02-09T01:41:29.588Z,103033.91
2023-02-09T01:43:57.236Z,103025.09
2023-02-09T01:46:23.891Z,103018.59
2023-02-09T01:48:51.233Z,103017.81
2023-02-09T01:51:17.612Z,103011.91
2023-02-09T01:53:44.485Z,103004.03
2023-02-09T01:56:11.689Z,102999.03
2023-02-09T01:58:38.060Z,103001.91
2023-02-09T02:01:04.419Z,102996.91
2023-02-09T02:03:30.811Z,102996.34
2023-02-09T02:05:58.550Z,102991.91
2023-02-09T02:08:35.416Z,102978.31
2023-02-09T02:11:01.767Z,102983.28
2023-02-09T02:13:28.109Z,102978.16
2023-02-09T02:16:00.450Z,102981.03
2023-02-09T02:18:26.790Z,102970.13
2023-02-09T02:20:56.073Z,102970.13
2023-02-09T02:32:20.314Z,102968.59
2023-02-09T02:35:05.610Z,102958.59
2023-02-09T02:37:38.000Z,102954.97
2023-02-09T02:40:13.455Z,102953.03
2023-02-09T02:42:49.655Z,102950.72
2023-02-09T02:45:18.959Z,102945.75
2023-02-09T02:47:47.197Z,102934.84
2023-02-09T02:50:14.075Z,102945.59
2023-02-09T02:52:40.406Z,102940.44
2023-02-09T02:55:08.420Z,102939.69
2023-02-09T02:57:34.742Z,102936.03
2023-02-09T03:00:02.028Z,102928.00
2023-02-09T03:02:30.854Z,102927.41
2023-02-09T03:04:57.202Z,102926.63
2023-02-09T03:07:23.558Z,102921.06
2023-02-09T03:09:50.315Z,102923.94
2023-02-09T03:12:18.278Z,102925.47
2023-02-09T03:15:01.120Z,102927.56
2023-02-09T03:17:40.782Z,102925.47
2023-02-09T03:20:11.097Z,102920.28
2023-02-09T03:22:38.602Z,102918.16
2023-02-09T03:25:09.204Z,102919.53
2023-02-09T03:27:36.588Z,102916.66
2023-02-09T03:30:04.275Z,102918.00
2023-02-09T03:32:30.933Z,102920.88
2023-02-09T03:34:57.271Z,102908.63
2023-02-09T03:37:23.609Z,102903.63
2023-02-09T03:39:49.951Z,102909.22
2023-02-09T03:42:16.314Z,102899.84
2023-02-09T03:44:42.644Z,102905.00
2023-02-09T03:47:09.175Z,102899.09
2023-02-09T03:49:36.496Z,102897.72
2023-02-09T03:52:02.976Z,102892.13
2023-02-09T03:54:29.756Z,102902.28
2023-02-09T03:56:56.190Z,102895.16
2023-02-09T03:59:23.041Z,102895.16
2023-02-09T04:01:49.379Z,102891.69
2023-02-09T04:04:15.717Z,102882.50
2023-02-09T04:06:42.042Z,102876.56
2023-02-09T04:09:09.298Z,102883.25
2023-02-09T04:11:35.626Z,102876.72
2023-02-09T04:14:01.962Z,102877.50
2023-02-09T04:16:28.389Z,102877.50
2023-02-09T04:18:54.761Z,102884.59
2023-02-09T04:21:21.084Z,102887.47
2023-02-09T04:23:49.468Z,102888.06
2023-02-09T04:26:15.795Z,102881.41
2023-02-09T04:28:42.106Z,102888.66
2023-02-09T04:31:08.523Z,102880.63
2023-02-09T04:33:34.954Z,102880.63
2023-02-09T04:36:01.272Z,102879.13
2023-02-09T04:38:27.608Z,102869.13
2023-02-09T04:40:54.164Z,102877.75
2023-02-09T04:43:20.499Z,102882.16
2023-02-09T04:45:46.863Z,102879.28
2023-02-09T04:48:13.961Z,102869.13
2023-02-09T04:50:40.300Z,102864.91
2023-02-09T04:53:06.631Z,102863.38
2023-02-09T04:55:32.971Z,102875.03
2023-02-09T04:58:18.175Z,102862.19
2023-02-09T05:00:44.930Z,102859.47
2023-02-09T05:03:11.538Z,102856.44
2023-02-09T05:05:41.215Z,102857.19
2023-02-09T05:08:07.556Z,102857.19
2023-02-09T05:10:34.025Z,102844.78
2023-02-09T05:13:00.334Z,102850.53
2023-02-09T05:15:26.695Z,102854.75
2023-02-09T05:17:53.008Z,102863.38
2023-02-09T05:20:19.332Z,102857.63
2023-02-09T05:22:45.634Z,102857.63
2023-02-09T05:25:11.960Z,102869.13
2023-02-09T05:27:38.271Z,102857.63
2023-02-09T05:30:04.684Z,102849.00
2023-02-09T05:32:31.004Z,102855.66
2023-02-09T05:34:57.331Z,102848.41
2023-02-09T05:37:23.643Z,102857.78
2023-02-09T05:39:51.097Z,102860.66
2023-02-09T05:42:17.431Z,102850.69
2023-02-09T05:44:47.440Z,102847.81
2023-02-09T05:47:14.885Z,102850.69
2023-02-09T05:49:41.215Z,102850.69
2023-02-09T05:52:07.536Z,102849.91
2023-02-09T05:54:33.871Z,102849.16
2023-02-09T05:57:00.207Z,102849.16
2023-02-09T05:59:26.545Z,102847.66
2023-02-09T06:01:52.927Z,102857.63
2023-02-09T06:04:19.308Z,102853.22
2023-02-09T06:06:45.639Z,102851.88
2023-02-09T06:09:13.006Z,102846.44
2023-02-09T06:11:39.349Z,102858.59
2023-02-09T06:14:05.665Z,102852.69
2023-02-09T06:16:31.994Z,102855.22
2023-02-09T06:18:58.315Z,102852.34
2023-02-09T06:21:24.637Z,102857.56
2023-02-09T06:23:50.967Z,102863.31
2023-02-09T06:26:17.304Z,102859.22
2023-02-09T06:28:43.647Z,102866.19
2023-02-09T06:31:10.089Z,102861.03
2023-02-09T06:33:36.565Z,102865.53
2023-02-09T06:36:02.990Z,102862.50
2023-02-09T06:38:35.228Z,102865.22
2023-02-09T06:41:01.614Z,102868.09
2023-02-09T06:43:27.982Z,102869.44
2023-02-09T06:45:54.357Z,102865.22
2023-02-09T06:48:20.737Z,102865.06
2023-02-09T06:50:47.407Z,102862.50
2023-02-09T06:53:14.088Z,102866.75
2023-02-09T06:55:40.431Z,102867.16
2023-02-09T06:58:06.755Z,102862.19
2023-02-09T07:00:33.123Z,102859.41
2023-02-09T07:02:59.602Z,102862.63
2023-02-09T07:05:25.988Z,102869.97
2023-02-09T07:07:52.320Z,102874.28
2023-02-09T07:10:18.797Z,102872.66
2023-02-09T07:12:45.135Z,102875.69
2023-02-09T07:15:11.756Z,102860.09
2023-02-09T07:17:38.084Z,102873.63
2023-02-09T07:20:04.530Z,102863.44
2023-02-09T07:22:30.932Z,102857.28
2023-02-09T07:24:57.323Z,102858.03
2023-02-09T07:27:23.656Z,102864.13
2023-02-09T07:29:49.982Z,102858.78
2023-02-09T07:32:16.314Z,102855.16
2023-02-09T07:34:42.660Z,102858.34
2023-02-09T07:37:08.972Z,102861.91
2023-02-09T07:39:37.127Z,102855.06
2023-02-09T07:42:03.577Z,102850.69
2023-02-09T07:44:50.203Z,102854.06
2023-02-09T07:47:16.533Z,102860.16
2023-02-09T07:49:42.876Z,102859.38
2023-02-09T07:52:09.226Z,102866.69
2023-02-09T07:54:35.557Z,102856.59
2023-02-09T07:57:01.934Z,102860.50
2023-02-09T07:59:28.280Z,102850.84
2023-02-09T08:01:54.649Z,102858.28
2023-02-09T08:04:21.107Z,102854.25
2023-02-09T08:06:47.456Z,102851.69
2023-02-09T08:09:14.787Z,102846.88
2023-02-09T08:11:46.267Z,102843.53
2023-02-09T08:14:17.115Z,102849.09
2023-02-09T08:16:43.435Z,102841.41
2023-02-09T08:19:11.229Z,102839.72
2023-02-09T08:21:38.357Z,102827.00
2023-02-09T08:24:05.508Z,102836.41
2023-02-09T08:26:31.829Z,102843.06
2023-02-09T08:28:58.237Z,102841.72
2023-02-09T08:31:24.647Z,102829.00
2023-02-09T08:33:51.140Z,102829.16
2023-02-09T08:36:17.737Z,102822.47
2023-02-09T08:38:44.603Z,102810.81
2023-02-09T08:41:11.750Z,102822.59
2023-02-09T08:43:38.095Z,102830.25
2023-02-09T08:46:05.357Z,102845.69
2023-02-09T08:48:33.224Z,102846.31
2023-02-09T08:51:00.560Z,102835.56
2023-02-09T08:53:26.881Z,102840.41
2023-02-09T08:55:53.247Z,102836.44
2023-02-09T08:58:19.576Z,102837.03
2023-02-09T09:00:45.929Z,102840.50
2023-02-09T09:03:12.297Z,102829.91
2023-02-09T09:05:38.631Z,102837.97
2023-02-09T09:08:05.686Z,102835.06
2023-02-09T09:10:32.052Z,102835.06
2023-02-09T09:12:58.437Z,102833.56
2023-02-09T09:15:24.820Z,102824.78
2023-02-09T09:17:51.137Z,102820.38
2023-02-09T09:20:17.539Z,102804.47
2023-02-09T09:22:43.895Z,102817.50
2023-02-09T09:25:10.243Z,102818.41
2023-02-09T09:27:36.563Z,102833.41
2023-02-09T09:30:03.720Z,102836.44
2023-02-09T09:32:30.193Z,102833.56
2023-02-09T09:34:57.509Z,102826.28
2023-02-09T09:37:23.912Z,102822.81
2023-02-09T09:39:50.246Z,102817.81
2023-02-09T09:42:33.864Z,102826.94
2023-02-09T09:45:00.188Z,102810.50
2023-02-09T09:47:34.557Z,102802.28
2023-02-09T09:50:00.930Z,102796.09
2023-02-09T09:52:31.282Z,102789.44
2023-02-09T09:54:57.860Z,102793.22
2023-02-09T09:57:24.797Z,102771.97
2023-02-09T09:59:51.363Z,102768.19
2023-02-09T10:02:23.384Z,102771.06
2023-02-09T10:04:49.774Z,102782.88
2023-02-09T10:07:19.601Z,102761.06
2023-02-09T10:09:51.824Z,102765.44
2023-02-09T10:12:18.097Z,102766.84
2023-02-09T10:14:44.480Z,102768.50
2023-02-09T10:17:10.838Z,102777.16
2023-02-09T10:19:37.240Z,102770.94
2023-02-09T10:22:03.659Z,102783.19
2023-02-09T10:24:30.855Z,102760.94
2023-02-09T10:27:04.746Z,102758.50
2023-02-09T10:29:31.075Z,102758.50
2023-02-09T10:32:00.103Z,102746.22
2023-02-09T10:34:31.567Z,102736.38
2023-02-09T10:37:16.645Z,102731.06
2023-02-09T10:39:42.971Z,102720.16
2023-02-09T10:42:16.439Z,102727.44
2023-02-09T10:44:42.830Z,102720.91
2023-02-09T10:47:24.002Z,102718.63
2023-02-09T10:49:52.440Z,102716.66
2023-02-09T10:52:20.213Z,102709.09
2023-02-09T10:54:50.661Z,102706.38
2023-02-09T10:57:20.776Z,102711.97
2023-02-09T11:00:00.099Z,102710.16
2023-02-09T11:02:40.279Z,102705.44
2023-02-09T11:05:25.404Z,102704.06
2023-02-09T11:07:53.784Z,102704.06
2023-02-09T11:10:20.542Z,102703.59
2023-02-09T11:12:46.868Z,102699.22
2023-02-09T11:15:13.695Z,102707.56
2023-02-09T11:17:41.909Z,102706.50
2023-02-09T11:20:08.135Z,102714.25
2023-02-09T11:22:52.772Z,102712.72
2023-02-09T11:25:23.918Z,102703.91
2023-02-09T11:28:09.178Z,102706.66
2023-02-09T11:30:50.737Z,102701.78
2023-02-09T11:33:26.649Z,102697.59
2023-02-09T11:36:10.930Z,102694.25
2023-02-09T11:38:42.094Z,102696.66
2023-02-09T11:41:29.755Z,102689.81
2023-02-09T11:43:56.080Z,102688.59
2023-02-09T11:46:22.491Z,102685.06
2023-02-09T11:48:50.209Z,102681.59
2023-02-09T11:51:17.570Z,102682.69
2023-02-09T11:53:59.500Z,102691.63
2023-02-09T11:56:26.199Z,102684.03
2023-02-09T11:59:11.281Z,102679.75
2023-02-09T12:01:56.463Z,102670.81
2023-02-09T12:04:24.954Z,102666.75
2023-02-09T12:06:52.224Z,102665.44
2023-02-09T12:09:25.558Z,102670.53
2023-02-09T12:11:53.465Z,102673.09
2023-02-09T12:14:30.540Z,102680.84
2023-02-09T12:16:58.347Z,102671.31
2023-02-09T12:19:26.296Z,102665.06
2023-02-09T12:21:52.640Z,102664.59
2023-02-09T12:24:37.311Z,102660.53
2023-02-09T12:27:03.652Z,102661.28
2023-02-09T12:29:29.878Z,102658.44
2023-02-09T12:32:05.900Z,102649.81
2023-02-09T12:34:34.973Z,102647.84
2023-02-09T12:37:13.634Z,102642.72
2023-02-09T12:39:59.975Z,102638.31
2023-02-09T12:42:27.166Z,102624.69
2023-02-09T12:44:54.172Z,102627.22
2023-02-09T12:47:39.844Z,102627.34
2023-02-09T12:50:13.453Z,102642.94
2023-02-09T12:52:41.618Z,102649.91
2023-02-09T12:55:11.420Z,102651.09
2023-02-09T12:57:48.031Z,102639.56
2023-02-09T13:00:14.288Z,102637.06
2023-02-09T13:02:42.848Z,102649.94
2023-02-09T13:05:18.883Z,102644.84
2023-02-09T13:07:49.977Z,102641.03
2023-02-09T13:10:37.864Z,102652.66
2023-02-09T13:13:05.825Z,102649.31
2023-02-09T13:15:35.931Z,102665.53
2023-02-09T13:18:24.969Z,102665.19
2023-02-09T13:20:51.231Z,102666.06
2023-02-09T13:23:26.530Z,102668.97
2023-02-09T13:25:57.520Z,102665.88
2023-02-09T13:28:23.871Z,102669.53
2023-02-09T13:30:50.250Z,102658.75
2023-02-09T13:33:20.355Z,102660.44
2023-02-09T13:36:00.652Z,102661.03
2023-02-09T13:38:29.834Z,102651.81
2023-02-09T13:40:56.219Z,102633.81
2023-02-09T13:43:28.071Z,102617.75
2023-02-09T13:45:54.781Z,102604.81
2023-02-09T13:48:24.144Z,102596.59
2023-02-09T13:50:50.798Z,102602.19
2023-02-09T13:53:17.353Z,102596.34
2023-02-09T13:55:45.351Z,102608.31
2023-02-09T13:58:19.154Z,102614.84
2023-02-09T14:00:47.262Z,102616.34
2023-02-09T14:03:23.723Z,102617.72
2023-02-09T14:05:51.773Z,102626.50
2023-02-09T14:08:18.092Z,102625.13
2023-02-09T14:10:45.304Z,102629.66
2023-02-09T14:13:19.467Z,102623.63
2023-02-09T14:16:05.903Z,102607.00
2023-02-09T14:18:51.396Z,102601.81
2023-02-09T14:21:19.243Z,102613.47
2023-02-09T14:23:46.332Z,102621.09
2023-02-09T14:26:15.606Z,102618.25
2023-02-09T14:28:43.303Z,102614.19
2023-02-09T14:31:19.533Z,102632.88
2023-02-09T14:33:48.980Z,102650.50
2023-02-09T14:36:25.341Z,102645.03
2023-02-09T14:38:51.778Z,102633.84
2023-02-09T14:41:18.043Z,102657.78
2023-02-09T14:43:44.355Z,102651.88
2023-02-09T14:46:10.735Z,102651.28
2023-02-09T14:48:37.153Z,102652.88
2023-02-09T14:51:13.263Z,102645.88
2023-02-09T14:53:39.580Z,102651.06
2023-02-09T14:56:05.960Z,102650.91
2023-02-09T14:58:32.285Z,102650.34
2023-02-09T15:00:59.348Z,102633.50
2023-02-09T15:03:25.739Z,102637.28
2023-02-09T15:06:00.629Z,102621.53
2023-02-09T15:08:26.977Z,102612.00
2023-02-09T15:10:53.813Z,102611.84
2023-02-09T15:13:20.153Z,102604.25
2023-02-09T15:15:46.934Z,102604.09
2023-02-09T15:18:17.664Z,102601.63
2023-02-09T15:20:43.984Z,102616.22
2023-02-09T15:23:10.315Z,102613.84
2023-02-09T15:25:36.652Z,102620.44
2023-02-09T15:28:03.306Z,102627.56
2023-02-09T15:30:33.202Z,102623.03
2023-02-09T15:32:59.543Z,102610.59
2023-02-09T15:35:26.126Z,102614.88
2023-02-09T15:37:53.156Z,102608.34
2023-02-09T15:40:42.422Z,102601.97
2023-02-09T15:43:30.731Z,102587.31
2023-02-09T15:46:05.765Z,102581.84
2023-02-09T15:48:32.673Z,102572.44
2023-02-09T15:50:58.984Z,102568.47
2023-02-09T15:53:26.598Z,102588.78
2023-02-09T15:55:53.024Z,102592.88
2023-02-09T15:58:27.919Z,102588.78
2023-02-09T16:00:54.241Z,102598.16
2023-02-09T16:03:20.694Z,102593.31
2023-02-09T16:05:50.295Z,102592.13
2023-02-09T16:08:20.117Z,102585.78
2023-02-09T16:10:46.941Z,102576.38
2023-02-09T16:13:13.762Z,102569.28
2023-02-09T16:15:40.093Z,102560.50
2023-02-09T16:18:06.457Z,102567.63
2023-02-09T16:20:32.776Z,102569.28
2023-02-09T16:23:11.833Z,102580.31
2023-02-09T16:25:54.087Z,102610.88
2023-02-09T16:28:20.994Z,102598.78
2023-02-09T16:30:53.979Z,102596.53
2023-02-09T16:33:20.627Z,102594.69
2023-02-09T16:35:57.127Z,102600.91
2023-02-09T16:38:23.690Z,102602.56
2023-02-09T16:40:50.054Z,102602.47
2023-02-09T16:43:16.395Z,102597.81
2023-02-09T16:45:48.505Z,102601.34
2023-02-09T16:48:22.567Z,102605.75
2023-02-09T16:50:53.005Z,102621.19
2023-02-09T16:53:24.960Z,102611.19
2023-02-09T16:55:51.679Z,102620.72
2023-02-09T16:58:18.449Z,102622.47
2023-02-09T17:00:44.919Z,102610.50
2023-02-09T17:03:36.336Z,102628.63
2023-02-09T17:06:02.676Z,102626.31
2023-02-09T17:08:31.961Z,102639.22
2023-02-09T17:10:58.388Z,102649.53
2023-02-09T17:13:24.800Z,102646.78
2023-02-09T17:15:55.067Z,102638.34
2023-02-09T17:18:21.641Z,102631.34
2023-02-09T17:20:49.846Z,102634.34
2023-02-09T17:23:17.005Z,102624.09
2023-02-09T17:25:43.372Z,102623.19
2023-02-09T17:28:09.761Z,102625.91
2023-02-09T17:30:36.103Z,102633.78
2023-02-09T17:33:03.019Z,102624.56
2023-02-09T17:35:57.961Z,102633.50
2023-02-09T17:38:19.548Z,102627.91
2023-02-09T17:40:45.919Z,102619.25
2023-02-09T17:43:12.437Z,102623.06
2023-02-09T17:45:38.933Z,102638.19
2023-02-09T17:48:05.729Z,102637.44
2023-02-09T17:50:32.114Z,102633.94
2023-02-09T17:52:58.445Z,102648.63
2023-02-09T17:55:26.073Z,102638.78
2023-02-09T17:57:54.268Z,102643.50
2023-02-09T18:00:20.933Z,102636.19
2023-02-09T18:02:47.338Z,102638.94
2023-02-09T18:05:15.486Z,102627.72
2023-02-09T18:07:41.829Z,102619.69
2023-02-09T18:10:08.153Z,102624.09
2023-02-09T18:12:34.513Z,102622.69
2023-02-09T18:15:01.052Z,102632.13
2023-02-09T18:17:27.383Z,102633.19
2023-02-09T18:19:53.940Z,102640.63
2023-02-09T18:22:20.317Z,102639.28
2023-02-09T18:24:46.667Z,102648.97
2023-02-09T18:27:13.977Z,102642.84
2023-02-09T18:29:40.298Z,102638.41
2023-02-09T18:32:06.957Z,102639.13
2023-02-09T18:34:33.358Z,102639.94
2023-02-09T18:36:59.688Z,102629.97
2023-02-09T18:39:26.006Z,102638.16
2023-02-09T18:41:54.560Z,102629.38
2023-02-09T18:44:24.263Z,102625.44
2023-02-09T18:46:50.608Z,102618.31
2023-02-09T18:49:16.928Z,102611.50
2023-02-09T18:51:43.251Z,102615.47
2023-02-09T18:54:09.581Z,102618.19
2023-02-09T18:56:35.941Z,102591.34
2023-02-09T18:59:02.260Z,102609.22
2023-02-09T19:01:28.602Z,102608.78
2023-02-09T19:03:54.984Z,102621.94
2023-02-09T19:06:21.721Z,102626.06
2023-02-09T19:08:48.450Z,102617.56
2023-02-09T19:11:18.310Z,102620.59
2023-02-09T19:14:04.634Z,102630.44
2023-02-09T19:16:30.951Z,102625.13
2023-02-09T19:18:58.258Z,102629.81
2023-02-09T19:21:24.724Z,102622.06
2023-02-09T19:23:51.080Z,102613.56
2023-02-09T19:26:17.404Z,102628.19
2023-02-09T19:28:43.781Z,102626.66
2023-02-09T19:31:11.649Z,102617.91
2023-02-09T19:33:38.014Z,102622.16
2023-02-09T19:36:04.548Z,102618.78
2023-02-09T19:38:31.052Z,102620.75
2023-02-09T19:41:10.168Z,102623.97
2023-02-09T19:43:37.605Z,102632.59
2023-02-09T19:46:05.188Z,102624.84
2023-02-09T19:48:31.725Z,102620.16
2023-02-09T19:50:58.116Z,102624.53
2023-02-09T19:53:24.664Z,102620.59
2023-02-09T19:55:51.224Z,102626.19
2023-02-09T19:58:17.607Z,102622.28
2023-02-09T20:00:43.929Z,102620.00
2023-02-09T20:03:10.375Z,102617.41
2023-02-09T20:05:38.838Z,102617.09
2023-02-09T20:08:05.275Z,102615.91
2023-02-09T20:10:31.592Z,102611.03
2023-02-09T20:12:57.944Z,102609.50
2023-02-09T20:15:24.262Z,102606.66
2023-02-09T20:17:50.722Z,102617.28
2023-02-09T20:20:17.063Z,102614.22
2023-02-09T20:22:43.402Z,102613.31
2023-02-09T20:25:10.601Z,102610.75
2023-02-09T20:27:36.937Z,102619.06
2023-02-09T20:30:04.151Z,102617.59
2023-02-09T20:32:30.500Z,102618.50
2023-02-09T20:34:56.901Z,102619.56
2023-02-09T20:37:23.231Z,102619.06
2023-02-09T20:39:49.559Z,102617.56
2023-02-09T20:42:34.480Z,102623.19
2023-02-09T20:45:19.549Z,102624.25
2023-02-09T20:47:45.911Z,102625.94
2023-02-09T20:50:13.624Z,102621.38
2023-02-09T20:52:39.982Z,102626.50
2023-02-09T20:55:06.409Z,102613.66
2023-02-09T20:57:32.899Z,102626.22
2023-02-09T20:59:59.294Z,102631.53
2023-02-09T21:02:25.746Z,102618.63
2023-02-09T21:04:54.153Z,102622.91
2023-02-09T21:07:20.495Z,102634.53
2023-02-09T21:09:47.028Z,102627.28
2023-02-09T21:12:13.672Z,102630.16
2023-02-09T21:14:42.916Z,102633.03
2023-02-09T21:17:09.426Z,102635.16
2023-02-09T21:19:35.769Z,102638.63
2023-02-09T21:22:02.228Z,102642.72
2023-02-09T21:24:28.582Z,102650.63
2023-02-09T21:26:54.931Z,102645.47
2023-02-09T21:29:21.287Z,102652.44
2023-02-09T21:31:47.717Z,102651.66
2023-02-09T21:34:14.878Z,102650.91
2023-02-09T21:36:41.212Z,102653.78
2023-02-09T21:39:07.567Z,102650.91
2023-02-09T21:41:52.833Z,102648.94
2023-02-09T21:44:19.420Z,102656.81
2023-02-09T21:46:45.766Z,102655.91
2023-02-09T21:49:12.334Z,102659.38
2023-02-09T21:51:38.834Z,102658.47
2023-02-09T21:54:05.159Z,102654.22
2023-02-09T21:56:31.666Z,102635.44
2023-02-09T21:58:58.006Z,102641.06
2023-02-09T22:01:24.445Z,102637.88
2023-02-09T22:03:56.951Z,102643.94
2023-02-09T22:06:24.621Z,102642.28
2023-02-09T22:08:51.316Z,102646.22
2023-02-09T22:11:17.673Z,102644.69
2023-02-09T22:13:44.012Z,102636.06
2023-02-09T22:16:10.346Z,102657.56
2023-02-09T22:18:37.193Z,102651.97
2023-02-09T22:21:07.390Z,102656.81
2023-02-09T22:23:33.723Z,102661.81
2023-02-09T22:26:00.551Z,102661.03
2023-02-09T22:28:27.182Z,102673.19
2023-02-09T22:30:53.553Z,102663.00
2023-02-09T22:33:20.613Z,102658.78
2023-02-09T22:35:47.446Z,102663.75
2023-02-09T22:38:13.943Z,102667.25
2023-02-09T22:40:40.303Z,102659.97
2023-02-09T22:43:06.894Z,102668.47
2023-02-09T22:45:33.283Z,102670.00
2023-02-09T22:47:59.595Z,102678.03
2023-02-09T22:50:25.939Z,102673.03
2023-02-09T22:52:52.260Z,102672.28
2023-02-09T22:55:18.599Z,102671.50
2023-02-09T22:57:44.914Z,102677.25
2023-02-09T23:00:11.538Z,102685.88
2023-02-09T23:02:37.857Z,102682.25
2023-02-09T23:05:04.195Z,102683.00
2023-02-09T23:07:30.882Z,102679.97
2023-02-09T23:09:57.238Z,102676.34
2023-02-09T23:12:23.590Z,102675.44
2023-02-09T23:14:49.936Z,102680.44
2023-02-09T23:17:16.346Z,102669.66
2023-02-09T23:19:44.783Z,102676.81
2023-02-09T23:22:11.107Z,102668.16
2023-02-09T23:24:37.440Z,102676.19
2023-02-09T23:27:03.769Z,102672.56
2023-02-09T23:29:31.252Z,102668.31
2023-02-09T23:31:58.510Z,102671.22
2023-02-09T23:34:24.945Z,102671.22
2023-02-09T23:36:51.276Z,102679.84
2023-02-09T23:39:18.489Z,102679.84
2023-02-09T23:41:44.902Z,102681.19
2023-02-09T23:44:11.447Z,102686.19
2023-02-09T23:46:37.810Z,102684.66
2023-02-09T23:49:04.228Z,102682.41
2023-02-09T23:51:31.272Z,102683.75
2023-02-09T23:53:58.140Z,102685.88
2023-02-09T23:56:24.476Z,102693.16
2023-02-09T23:58:51.018Z,102692.38
